sensor_id;sensor_type;location;lat;lon;timestamp;P1;durP1;ratioP1;P2;durP2;ratioP2
25199;SDS011;33094;48.782;9.162;2023-03-24T02:02:27;4.47;;;3.60;;
25199;SDS011;33094;48.782;9.162;2023-03-24T02:04:54;5.43;;;3.08;;
25199;SDS011;33094;48.782;9.162;2023-03-24T02:10:01;4.60;;;3.08;;
25199;SDS011;33094;48.782;9.162;2023-03-24T02:12:30;5.97;;;3.10;;
25199;SDS011;33094;48.782;9.162;2023-03-24T02:18:12;6.82;;;3.38;;
25199;SDS011;33094;48.782;9.162;2023-03-24T02:22:58;10.52;;;3.30;;
25199;SDS011;33094;48.782;9.162;2023-03-24T02:31:11;4.35;;;3.00;;
25199;SDS011;33094;48.782;9.162;2023-03-24T02:34:05;6.25;;;2.80;;
25199;SDS011;33094;48.782;9.162;2023-03-24T02:50:32;4.15;;;3.03;;
25199;SDS011;33094;48.782;9.162;2023-03-24T02:54:10;3.42;;;2.75;;
25199;SDS011;33094;48.782;9.162;2023-03-24T02:56:25;5.28;;;2.38;;
25199;SDS011;33094;48.782;9.162;2023-03-24T02:59:02;3.25;;;2.00;;
25199;SDS011;33094;48.782;9.162;2023-03-24T03:01:40;3.30;;;2.15;;
25199;SDS011;33094;48.782;9.162;2023-03-24T03:04:23;5.15;;;2.50;;
25199;SDS011;33094;48.782;9.162;2023-03-24T03:07:04;4.13;;;2.53;;
25199;SDS011;33094;48.782;9.162;2023-03-24T03:09:47;3.08;;;2.20;;
25199;SDS011;33094;48.782;9.162;2023-03-24T03:12:21;6.57;;;2.95;;
25199;SDS011;33094;48.782;9.162;2023-03-24T03:14:53;6.18;;;2.78;;
25199;SDS011;33094;48.782;9.162;2023-03-24T03:17:25;6.43;;;2.30;;
25199;SDS011;33094;48.782;9.162;2023-03-24T03:19:55;5.97;;;2.75;;
25199;SDS011;33094;48.782;9.162;2023-03-24T03:22:27;5.60;;;2.63;;
25199;SDS011;33094;48.782;9.162;2023-03-24T03:24:59;9.35;;;2.83;;
25199;SDS011;33094;48.782;9.162;2023-03-24T03:27:33;4.32;;;2.15;;
25199;SDS011;33094;48.782;9.162;2023-03-24T03:30:25;2.10;;;1.90;;
25199;SDS011;33094;48.782;9.162;2023-03-24T03:33:24;3.00;;;1.98;;
25199;SDS011;33094;48.782;9.162;2023-03-24T03:36:05;6.38;;;2.75;;
25199;SDS011;33094;48.782;9.162;2023-03-24T03:38:59;5.20;;;2.80;;
25199;SDS011;33094;48.782;9.162;2023-03-24T03:41:55;3.60;;;2.55;;
25199;SDS011;33094;48.782;9.162;2023-03-24T03:44:21;7.23;;;2.83;;
25199;SDS011;33094;48.782;9.162;2023-03-24T03:46:48;3.35;;;2.35;;
25199;SDS011;33094;48.782;9.162;2023-03-24T03:49:13;6.38;;;2.53;;
25199;SDS011;33094;48.782;9.162;2023-03-24T03:51:39;5.70;;;2.50;;
25199;SDS011;33094;48.782;9.162;2023-03-24T03:54:06;3.45;;;2.28;;
25199;SDS011;33094;48.782;9.162;2023-03-24T03:56:34;5.20;;;2.60;;
25199;SDS011;33094;48.782;9.162;2023-03-24T03:59:02;6.40;;;2.58;;
25199;SDS011;33094;48.782;9.162;2023-03-24T04:01:30;3.35;;;2.15;;
25199;SDS011;33094;48.782;9.162;2023-03-24T04:11:41;4.15;;;2.95;;
25199;SDS011;33094;48.782;9.162;2023-03-24T04:22:26;4.30;;;2.22;;
25199;SDS011;33094;48.782;9.162;2023-03-24T04:25:12;5.80;;;2.42;;
25199;SDS011;33094;48.782;9.162;2023-03-24T04:27:57;3.50;;;2.30;;
25199;SDS011;33094;48.782;9.162;2023-03-24T04:30:46;2.83;;;2.22;;
25199;SDS011;33094;48.782;9.162;2023-03-24T04:33:19;3.70;;;2.60;;
25199;SDS011;33094;48.782;9.162;2023-03-24T04:36:02;5.28;;;2.22;;
25199;SDS011;33094;48.782;9.162;2023-03-24T04:38:44;2.55;;;2.10;;
25199;SDS011;33094;48.782;9.162;2023-03-24T04:41:14;3.00;;;2.40;;
25199;SDS011;33094;48.782;9.162;2023-03-24T04:43:42;6.75;;;2.50;;
25199;SDS011;33094;48.782;9.162;2023-03-24T04:46:12;4.75;;;2.92;;
25199;SDS011;33094;48.782;9.162;2023-03-24T04:48:41;3.45;;;2.30;;
25199;SDS011;33094;48.782;9.162;2023-03-24T04:51:08;3.92;;;2.25;;
25199;SDS011;33094;48.782;9.162;2023-03-24T04:53:35;6.80;;;3.83;;
25199;SDS011;33094;48.782;9.162;2023-03-24T04:58:31;3.42;;;2.20;;
25199;SDS011;33094;48.782;9.162;2023-03-24T05:00:57;3.70;;;2.42;;
25199;SDS011;33094;48.782;9.162;2023-03-24T05:03:23;3.92;;;2.20;;
25199;SDS011;33094;48.782;9.162;2023-03-24T05:05:49;2.53;;;2.15;;
25199;SDS011;33094;48.782;9.162;2023-03-24T05:08:16;5.10;;;2.53;;
25199;SDS011;33094;48.782;9.162;2023-03-24T05:10:45;4.28;;;2.22;;
25199;SDS011;33094;48.782;9.162;2023-03-24T05:13:11;3.22;;;2.40;;
25199;SDS011;33094;48.782;9.162;2023-03-24T05:15:38;3.78;;;1.77;;
25199;SDS011;33094;48.782;9.162;2023-03-24T05:18:04;3.05;;;1.77;;
25199;SDS011;33094;48.782;9.162;2023-03-24T05:21:07;3.50;;;1.75;;
25199;SDS011;33094;48.782;9.162;2023-03-24T05:23:33;2.03;;;1.80;;
25199;SDS011;33094;48.782;9.162;2023-03-24T05:26:17;3.15;;;1.80;;
25199;SDS011;33094;48.782;9.162;2023-03-24T05:28:43;3.47;;;1.83;;
25199;SDS011;33094;48.782;9.162;2023-03-24T05:31:27;2.67;;;2.10;;
25199;SDS011;33094;48.782;9.162;2023-03-24T05:33:53;5.75;;;1.83;;
25199;SDS011;33094;48.782;9.162;2023-03-24T05:36:19;3.33;;;2.13;;
25199;SDS011;33094;48.782;9.162;2023-03-24T05:38:45;2.88;;;2.40;;
25199;SDS011;33094;48.782;9.162;2023-03-24T05:41:10;4.20;;;2.20;;
25199;SDS011;33094;48.782;9.162;2023-03-24T05:43:36;5.38;;;2.35;;
25199;SDS011;33094;48.782;9.162;2023-03-24T05:46:01;3.83;;;2.58;;
25199;SDS011;33094;48.782;9.162;2023-03-24T05:48:27;5.47;;;2.30;;
25199;SDS011;33094;48.782;9.162;2023-03-24T05:50:53;5.15;;;2.63;;
25199;SDS011;33094;48.782;9.162;2023-03-24T05:53:19;4.50;;;2.78;;
25199;SDS011;33094;48.782;9.162;2023-03-24T05:55:45;3.78;;;2.53;;
25199;SDS011;33094;48.782;9.162;2023-03-24T05:58:10;9.50;;;2.92;;
25199;SDS011;33094;48.782;9.162;2023-03-24T06:00:36;10.07;;;2.72;;
25199;SDS011;33094;48.782;9.162;2023-03-24T06:03:02;3.83;;;2.67;;
25199;SDS011;33094;48.782;9.162;2023-03-24T06:05:28;3.60;;;2.77;;
25199;SDS011;33094;48.782;9.162;2023-03-24T06:07:55;5.83;;;2.77;;
25199;SDS011;33094;48.782;9.162;2023-03-24T06:10:23;6.35;;;2.92;;
25199;SDS011;33094;48.782;9.162;2023-03-24T06:12:50;6.25;;;2.90;;
25199;SDS011;33094;48.782;9.162;2023-03-24T06:15:16;4.78;;;2.60;;
25199;SDS011;33094;48.782;9.162;2023-03-24T06:17:43;6.43;;;2.95;;
25199;SDS011;33094;48.782;9.162;2023-03-24T06:20:10;4.65;;;3.00;;
25199;SDS011;33094;48.782;9.162;2023-03-24T06:22:40;2.95;;;2.60;;
25199;SDS011;33094;48.782;9.162;2023-03-24T06:25:10;4.70;;;2.83;;
25199;SDS011;33094;48.782;9.162;2023-03-24T06:27:36;7.13;;;2.97;;
25199;SDS011;33094;48.782;9.162;2023-03-24T06:30:02;5.85;;;3.50;;
25199;SDS011;33094;48.782;9.162;2023-03-24T06:32:28;5.35;;;3.50;;
25199;SDS011;33094;48.782;9.162;2023-03-24T06:34:54;5.82;;;3.10;;
25199;SDS011;33094;48.782;9.162;2023-03-24T06:37:20;3.30;;;3.00;;
25199;SDS011;33094;48.782;9.162;2023-03-24T06:39:47;3.90;;;3.03;;
25199;SDS011;33094;48.782;9.162;2023-03-24T06:42:12;5.95;;;3.47;;
25199;SDS011;33094;48.782;9.162;2023-03-24T06:44:38;4.00;;;2.97;;
25199;SDS011;33094;48.782;9.162;2023-03-24T06:47:04;6.53;;;3.47;;
25199;SDS011;33094;48.782;9.162;2023-03-24T06:49:30;3.78;;;3.25;;
25199;SDS011;33094;48.782;9.162;2023-03-24T06:51:56;5.80;;;3.33;;
25199;SDS011;33094;48.782;9.162;2023-03-24T06:54:21;4.72;;;2.83;;
25199;SDS011;33094;48.782;9.162;2023-03-24T06:56:47;3.20;;;2.90;;
25199;SDS011;33094;48.782;9.162;2023-03-24T06:59:13;4.40;;;3.03;;
25199;SDS011;33094;48.782;9.162;2023-03-24T07:01:41;4.40;;;2.85;;
25199;SDS011;33094;48.782;9.162;2023-03-24T07:04:07;5.13;;;3.42;;
25199;SDS011;33094;48.782;9.162;2023-03-24T07:06:32;6.15;;;3.50;;
25199;SDS011;33094;48.782;9.162;2023-03-24T07:08:58;4.55;;;3.30;;
25199;SDS011;33094;48.782;9.162;2023-03-24T07:11:24;9.47;;;3.60;;
25199;SDS011;33094;48.782;9.162;2023-03-24T07:13:51;7.20;;;3.97;;
25199;SDS011;33094;48.782;9.162;2023-03-24T07:16:16;6.47;;;3.60;;
25199;SDS011;33094;48.782;9.162;2023-03-24T07:18:42;5.47;;;3.85;;
25199;SDS011;33094;48.782;9.162;2023-03-24T07:21:26;6.47;;;3.53;;
25199;SDS011;33094;48.782;9.162;2023-03-24T07:23:52;8.07;;;3.55;;
25199;SDS011;33094;48.782;9.162;2023-03-24T07:26:18;5.85;;;3.72;;
25199;SDS011;33094;48.782;9.162;2023-03-24T07:28:43;7.70;;;4.15;;
25199;SDS011;33094;48.782;9.162;2023-03-24T07:31:09;5.90;;;3.75;;
25199;SDS011;33094;48.782;9.162;2023-03-24T07:33:36;8.55;;;3.90;;
25199;SDS011;33094;48.782;9.162;2023-03-24T07:36:02;9.23;;;4.47;;
25199;SDS011;33094;48.782;9.162;2023-03-24T07:38:28;5.75;;;4.43;;
25199;SDS011;33094;48.782;9.162;2023-03-24T07:40:56;6.63;;;4.65;;
25199;SDS011;33094;48.782;9.162;2023-03-24T07:43:23;7.03;;;4.55;;
25199;SDS011;33094;48.782;9.162;2023-03-24T07:45:49;6.30;;;4.75;;
25199;SDS011;33094;48.782;9.162;2023-03-24T07:48:14;6.28;;;4.28;;
25199;SDS011;33094;48.782;9.162;2023-03-24T07:50:40;5.65;;;4.20;;
25199;SDS011;33094;48.782;9.162;2023-03-24T07:53:06;8.00;;;4.40;;
25199;SDS011;33094;48.782;9.162;2023-03-24T07:55:34;6.03;;;4.47;;
25199;SDS011;33094;48.782;9.162;2023-03-24T07:58:01;9.10;;;4.32;;
25199;SDS011;33094;48.782;9.162;2023-03-24T08:02:55;8.20;;;4.40;;
25199;SDS011;33094;48.782;9.162;2023-03-24T08:05:21;6.75;;;5.13;;
25199;SDS011;33094;48.782;9.162;2023-03-24T08:07:48;6.50;;;4.80;;
25199;SDS011;33094;48.782;9.162;2023-03-24T08:10:17;10.40;;;4.30;;
25199;SDS011;33094;48.782;9.162;2023-03-24T08:12:45;8.98;;;4.35;;
25199;SDS011;33094;48.782;9.162;2023-03-24T08:15:12;9.40;;;5.22;;
25199;SDS011;33094;48.782;9.162;2023-03-24T08:17:38;10.15;;;5.82;;
25199;SDS011;33094;48.782;9.162;2023-03-24T08:20:05;8.80;;;4.80;;
25199;SDS011;33094;48.782;9.162;2023-03-24T08:22:33;7.75;;;4.78;;
25199;SDS011;33094;48.782;9.162;2023-03-24T08:25:00;6.35;;;4.80;;
25199;SDS011;33094;48.782;9.162;2023-03-24T08:27:26;6.53;;;4.05;;
25199;SDS011;33094;48.782;9.162;2023-03-24T08:29:52;6.93;;;4.13;;
25199;SDS011;33094;48.782;9.162;2023-03-24T08:32:17;7.25;;;4.05;;
25199;SDS011;33094;48.782;9.162;2023-03-24T08:34:43;5.65;;;3.97;;
25199;SDS011;33094;48.782;9.162;2023-03-24T08:37:09;4.80;;;4.25;;
25199;SDS011;33094;48.782;9.162;2023-03-24T08:39:35;6.35;;;3.35;;
25199;SDS011;33094;48.782;9.162;2023-03-24T08:42:01;4.07;;;3.38;;
25199;SDS011;33094;48.782;9.162;2023-03-24T08:44:27;6.35;;;4.00;;
25199;SDS011;33094;48.782;9.162;2023-03-24T08:46:53;5.18;;;3.75;;
25199;SDS011;33094;48.782;9.162;2023-03-24T08:49:19;5.70;;;4.05;;
25199;SDS011;33094;48.782;9.162;2023-03-24T08:51:45;4.00;;;3.60;;
25199;SDS011;33094;48.782;9.162;2023-03-24T08:54:11;12.63;;;4.82;;
25199;SDS011;33094;48.782;9.162;2023-03-24T08:56:37;11.05;;;4.07;;
25199;SDS011;33094;48.782;9.162;2023-03-24T08:59:03;14.33;;;4.97;;
25199;SDS011;33094;48.782;9.162;2023-03-24T09:01:29;11.00;;;4.40;;
25199;SDS011;33094;48.782;9.162;2023-03-24T09:03:57;12.68;;;4.45;;
25199;SDS011;33094;48.782;9.162;2023-03-24T09:06:23;4.95;;;3.55;;
25199;SDS011;33094;48.782;9.162;2023-03-24T09:08:51;10.48;;;4.20;;
25199;SDS011;33094;48.782;9.162;2023-03-24T09:11:18;5.25;;;3.50;;
25199;SDS011;33094;48.782;9.162;2023-03-24T09:13:46;5.43;;;3.30;;
25199;SDS011;33094;48.782;9.162;2023-03-24T09:16:12;4.53;;;3.05;;
25199;SDS011;33094;48.782;9.162;2023-03-24T09:18:38;6.95;;;3.67;;
25199;SDS011;33094;48.782;9.162;2023-03-24T09:21:04;3.25;;;2.50;;
25199;SDS011;33094;48.782;9.162;2023-03-24T09:23:30;4.18;;;3.47;;
25199;SDS011;33094;48.782;9.162;2023-03-24T09:25:56;4.70;;;3.15;;
25199;SDS011;33094;48.782;9.162;2023-03-24T09:28:21;5.20;;;3.00;;
25199;SDS011;33094;48.782;9.162;2023-03-24T09:30:47;7.43;;;3.60;;
25199;SDS011;33094;48.782;9.162;2023-03-24T09:33:13;4.43;;;2.83;;
25199;SDS011;33094;48.782;9.162;2023-03-24T09:35:40;3.10;;;2.55;;
25199;SDS011;33094;48.782;9.162;2023-03-24T09:38:06;2.90;;;2.60;;
25199;SDS011;33094;48.782;9.162;2023-03-24T09:40:35;3.38;;;2.30;;
25199;SDS011;33094;48.782;9.162;2023-03-24T09:43:04;2.88;;;2.38;;
25199;SDS011;33094;48.782;9.162;2023-03-24T09:45:50;3.95;;;2.42;;
25199;SDS011;33094;48.782;9.162;2023-03-24T09:50:58;3.17;;;2.25;;
25199;SDS011;33094;48.782;9.162;2023-03-24T09:53:42;2.88;;;2.67;;
25199;SDS011;33094;48.782;9.162;2023-03-24T09:56:16;2.88;;;2.30;;
25199;SDS011;33094;48.782;9.162;2023-03-24T09:58:45;3.88;;;3.00;;
25199;SDS011;33094;48.782;9.162;2023-03-24T10:01:20;3.40;;;2.40;;
25199;SDS011;33094;48.782;9.162;2023-03-24T10:03:45;6.72;;;2.97;;
25199;SDS011;33094;48.782;9.162;2023-03-24T10:06:30;3.42;;;2.47;;
25199;SDS011;33094;48.782;9.162;2023-03-24T10:09:27;3.55;;;2.20;;
25199;SDS011;33094;48.782;9.162;2023-03-24T10:25:43;6.25;;;2.40;;
25199;SDS011;33094;48.782;9.162;2023-03-24T10:31:10;2.97;;;1.50;;
25199;SDS011;33094;48.782;9.162;2023-03-24T10:33:40;2.88;;;1.70;;
25199;SDS011;33094;48.782;9.162;2023-03-24T10:36:17;2.72;;;1.92;;
25199;SDS011;33094;48.782;9.162;2023-03-24T10:38:58;1.80;;;1.63;;
25199;SDS011;33094;48.782;9.162;2023-03-24T10:41:25;2.03;;;1.77;;
25199;SDS011;33094;48.782;9.162;2023-03-24T10:43:53;5.25;;;1.70;;
25199;SDS011;33094;48.782;9.162;2023-03-24T10:46:21;5.00;;;1.48;;
25199;SDS011;33094;48.782;9.162;2023-03-24T10:48:51;3.85;;;1.75;;
25199;SDS011;33094;48.782;9.162;2023-03-24T10:51:31;3.22;;;1.45;;
25199;SDS011;33094;48.782;9.162;2023-03-24T10:54:09;1.73;;;1.55;;
25199;SDS011;33094;48.782;9.162;2023-03-24T10:56:43;3.40;;;1.70;;
25199;SDS011;33094;48.782;9.162;2023-03-24T10:59:22;3.92;;;1.60;;
25199;SDS011;33094;48.782;9.162;2023-03-24T11:02:38;4.72;;;1.42;;
25199;SDS011;33094;48.782;9.162;2023-03-24T11:04:55;6.30;;;1.40;;
25199;SDS011;33094;48.782;9.162;2023-03-24T11:07:33;5.70;;;1.48;;
25199;SDS011;33094;48.782;9.162;2023-03-24T11:12:34;1.65;;;1.25;;
25199;SDS011;33094;48.782;9.162;2023-03-24T11:15:23;2.05;;;1.70;;
25199;SDS011;33094;48.782;9.162;2023-03-24T11:25:40;1.50;;;1.30;;
25199;SDS011;33094;48.782;9.162;2023-03-24T11:28:14;2.50;;;1.00;;
25199;SDS011;33094;48.782;9.162;2023-03-24T11:30:44;1.33;;;1.23;;
25199;SDS011;33094;48.782;9.162;2023-03-24T11:33:19;1.80;;;1.02;;
25199;SDS011;33094;48.782;9.162;2023-03-24T11:35:49;1.88;;;1.30;;
25199;SDS011;33094;48.782;9.162;2023-03-24T11:38:16;3.95;;;1.20;;
25199;SDS011;33094;48.782;9.162;2023-03-24T11:40:56;1.98;;;1.25;;
25199;SDS011;33094;48.782;9.162;2023-03-24T11:43:25;1.58;;;0.80;;
25199;SDS011;33094;48.782;9.162;2023-03-24T11:48:40;5.00;;;1.30;;
25199;SDS011;33094;48.782;9.162;2023-03-24T11:51:37;1.35;;;1.00;;
25199;SDS011;33094;48.782;9.162;2023-03-24T11:54:08;0.70;;;0.70;;
25199;SDS011;33094;48.782;9.162;2023-03-24T11:56:41;1.00;;;0.93;;
25199;SDS011;33094;48.782;9.162;2023-03-24T12:05:35;2.47;;;0.98;;
25199;SDS011;33094;48.782;9.162;2023-03-24T12:08:25;1.52;;;0.95;;
25199;SDS011;33094;48.782;9.162;2023-03-24T12:11:16;1.90;;;0.80;;
25199;SDS011;33094;48.782;9.162;2023-03-24T12:13:48;1.50;;;0.90;;
25199;SDS011;33094;48.782;9.162;2023-03-24T12:26:38;1.35;;;0.90;;
25199;SDS011;33094;48.782;9.162;2023-03-24T12:42:40;2.42;;;0.60;;
25199;SDS011;33094;48.782;9.162;2023-03-24T12:45:28;1.20;;;0.60;;
25199;SDS011;33094;48.782;9.162;2023-03-24T12:50:49;0.73;;;0.52;;
25199;SDS011;33094;48.782;9.162;2023-03-24T12:56:18;1.30;;;0.80;;
25199;SDS011;33094;48.782;9.162;2023-03-24T12:58:49;3.45;;;0.70;;
25199;SDS011;33094;48.782;9.162;2023-03-24T13:01:40;2.40;;;1.00;;
25199;SDS011;33094;48.782;9.162;2023-03-24T13:06:52;1.05;;;0.52;;
25199;SDS011;33094;48.782;9.162;2023-03-24T13:09:33;0.60;;;0.60;;
25199;SDS011;33094;48.782;9.162;2023-03-24T13:12:18;1.40;;;0.70;;
25199;SDS011;33094;48.782;9.162;2023-03-24T13:17:23;3.13;;;0.88;;
25199;SDS011;33094;48.782;9.162;2023-03-24T13:19:55;0.80;;;0.60;;
25199;SDS011;33094;48.782;9.162;2023-03-24T13:22:22;2.42;;;0.70;;
25199;SDS011;33094;48.782;9.162;2023-03-24T13:24:49;2.38;;;0.70;;
25199;SDS011;33094;48.782;9.162;2023-03-24T13:27:19;2.92;;;0.63;;
25199;SDS011;33094;48.782;9.162;2023-03-24T13:32:33;1.08;;;0.40;;
25199;SDS011;33094;48.782;9.162;2023-03-24T13:40:37;0.65;;;0.40;;
25199;SDS011;33094;48.782;9.162;2023-03-24T13:43:11;0.73;;;0.68;;
25199;SDS011;33094;48.782;9.162;2023-03-24T13:45:43;0.85;;;0.70;;
25199;SDS011;33094;48.782;9.162;2023-03-24T13:51:06;2.05;;;0.55;;
25199;SDS011;33094;48.782;9.162;2023-03-24T13:53:43;2.38;;;0.80;;
25199;SDS011;33094;48.782;9.162;2023-03-24T13:56:26;4.15;;;0.52;;
25199;SDS011;33094;48.782;9.162;2023-03-24T13:59:05;1.33;;;0.70;;
25199;SDS011;33094;48.782;9.162;2023-03-24T14:06:55;2.10;;;0.80;;
25199;SDS011;33094;48.782;9.162;2023-03-24T14:09:24;1.23;;;1.10;;
25199;SDS011;33094;48.782;9.162;2023-03-24T14:12:06;0.70;;;0.70;;
25199;SDS011;33094;48.782;9.162;2023-03-24T14:14:34;2.97;;;1.23;;
25199;SDS011;33094;48.782;9.162;2023-03-24T14:19:36;1.08;;;0.98;;
25199;SDS011;33094;48.782;9.162;2023-03-24T14:22:07;4.40;;;1.23;;
25199;SDS011;33094;48.782;9.162;2023-03-24T14:24:37;1.83;;;1.10;;
25199;SDS011;33094;48.782;9.162;2023-03-24T14:30:04;4.32;;;1.40;;
25199;SDS011;33094;48.782;9.162;2023-03-24T14:32:57;1.10;;;1.00;;
25199;SDS011;33094;48.782;9.162;2023-03-24T14:35:40;5.68;;;1.50;;
25199;SDS011;33094;48.782;9.162;2023-03-24T14:40:39;3.00;;;1.33;;
25199;SDS011;33094;48.782;9.162;2023-03-24T14:43:17;4.18;;;1.02;;
25199;SDS011;33094;48.782;9.162;2023-03-24T14:48:35;4.47;;;1.65;;
25199;SDS011;33094;48.782;9.162;2023-03-24T14:51:08;6.05;;;1.42;;
25199;SDS011;33094;48.782;9.162;2023-03-24T14:53:36;4.47;;;1.58;;
25199;SDS011;33094;48.782;9.162;2023-03-24T14:56:04;4.72;;;1.23;;
25199;SDS011;33094;48.782;9.162;2023-03-24T14:58:34;1.30;;;0.77;;
25199;SDS011;33094;48.782;9.162;2023-03-24T15:01:03;1.38;;;1.00;;
25199;SDS011;33094;48.782;9.162;2023-03-24T15:03:42;4.32;;;1.20;;
25199;SDS011;33094;48.782;9.162;2023-03-24T15:06:29;6.53;;;1.83;;
25199;SDS011;33094;48.782;9.162;2023-03-24T15:08:55;5.05;;;0.93;;
25199;SDS011;33094;48.782;9.162;2023-03-24T15:11:27;1.60;;;1.10;;
25199;SDS011;33094;48.782;9.162;2023-03-24T15:13:55;2.50;;;1.05;;
25199;SDS011;33094;48.782;9.162;2023-03-24T15:16:24;2.95;;;1.30;;
25199;SDS011;33094;48.782;9.162;2023-03-24T15:19:14;2.05;;;1.15;;
25199;SDS011;33094;48.782;9.162;2023-03-24T15:21:49;5.47;;;1.42;;
25199;SDS011;33094;48.782;9.162;2023-03-24T15:26:47;1.70;;;1.00;;
25199;SDS011;33094;48.782;9.162;2023-03-24T15:29:17;3.03;;;1.23;;
25199;SDS011;33094;48.782;9.162;2023-03-24T15:31:43;1.95;;;1.15;;
25199;SDS011;33094;48.782;9.162;2023-03-24T15:34:26;4.65;;;1.73;;
25199;SDS011;33094;48.782;9.162;2023-03-24T15:37:03;2.63;;;1.58;;
25199;SDS011;33094;48.782;9.162;2023-03-24T15:39:33;4.22;;;1.38;;
25199;SDS011;33094;48.782;9.162;2023-03-24T15:42:03;1.65;;;1.15;;
25199;SDS011;33094;48.782;9.162;2023-03-24T15:44:38;1.17;;;0.93;;
25199;SDS011;33094;48.782;9.162;2023-03-24T15:50:26;2.13;;;1.30;;
25199;SDS011;33094;48.782;9.162;2023-03-24T15:53:00;2.33;;;1.40;;
25199;SDS011;33094;48.782;9.162;2023-03-24T15:55:38;2.58;;;1.20;;
25199;SDS011;33094;48.782;9.162;2023-03-24T16:01:19;2.33;;;1.15;;
25199;SDS011;33094;48.782;9.162;2023-03-24T16:03:55;2.22;;;1.20;;
25199;SDS011;33094;48.782;9.162;2023-03-24T16:06:25;6.30;;;1.35;;
25199;SDS011;33094;48.782;9.162;2023-03-24T16:09:06;1.65;;;1.05;;
25199;SDS011;33094;48.782;9.162;2023-03-24T16:11:35;3.00;;;1.45;;
25199;SDS011;33094;48.782;9.162;2023-03-24T16:14:01;1.27;;;0.82;;
25199;SDS011;33094;48.782;9.162;2023-03-24T16:16:45;6.25;;;1.80;;
25199;SDS011;33094;48.782;9.162;2023-03-24T16:19:11;1.38;;;0.70;;
25199;SDS011;33094;48.782;9.162;2023-03-24T16:21:37;2.37;;;0.90;;
25199;SDS011;33094;48.782;9.162;2023-03-24T16:24:03;3.00;;;0.93;;
25199;SDS011;33094;48.782;9.162;2023-03-24T16:26:30;4.57;;;1.08;;
25199;SDS011;33094;48.782;9.162;2023-03-24T16:29:16;2.22;;;0.80;;
25199;SDS011;33094;48.782;9.162;2023-03-24T16:31:42;2.10;;;1.35;;
25199;SDS011;33094;48.782;9.162;2023-03-24T16:34:12;1.40;;;1.30;;
25199;SDS011;33094;48.782;9.162;2023-03-24T16:36:39;2.25;;;1.65;;
25199;SDS011;33094;48.782;9.162;2023-03-24T16:39:09;4.05;;;1.90;;
25199;SDS011;33094;48.782;9.162;2023-03-24T16:41:39;3.75;;;1.60;;
25199;SDS011;33094;48.782;9.162;2023-03-24T16:44:05;2.17;;;1.35;;
25199;SDS011;33094;48.782;9.162;2023-03-24T16:46:31;1.60;;;1.30;;
25199;SDS011;33094;48.782;9.162;2023-03-24T16:49:00;1.38;;;1.25;;
25199;SDS011;33094;48.782;9.162;2023-03-24T16:51:28;3.30;;;1.50;;
25199;SDS011;33094;48.782;9.162;2023-03-24T16:53:56;2.97;;;1.60;;
25199;SDS011;33094;48.782;9.162;2023-03-24T16:56:22;2.58;;;1.50;;
25199;SDS011;33094;48.782;9.162;2023-03-24T16:58:48;2.95;;;1.20;;
25199;SDS011;33094;48.782;9.162;2023-03-24T17:04:03;1.60;;;1.30;;
25199;SDS011;33094;48.782;9.162;2023-03-24T17:06:35;2.40;;;1.40;;
25199;SDS011;33094;48.782;9.162;2023-03-24T17:09:02;4.32;;;1.90;;
25199;SDS011;33094;48.782;9.162;2023-03-24T17:11:37;3.35;;;1.80;;
25199;SDS011;33094;48.782;9.162;2023-03-24T17:14:07;3.47;;;1.63;;
25199;SDS011;33094;48.782;9.162;2023-03-24T17:16:36;2.03;;;1.70;;
25199;SDS011;33094;48.782;9.162;2023-03-24T17:19:07;2.80;;;1.80;;
25199;SDS011;33094;48.782;9.162;2023-03-24T17:31:58;2.00;;;1.70;;
25199;SDS011;33094;48.782;9.162;2023-03-24T18:02:53;4.20;;;1.90;;
25199;SDS011;33094;48.782;9.162;2023-03-24T18:10:29;2.35;;;1.77;;
25199;SDS011;33094;48.782;9.162;2023-03-24T18:12:58;4.28;;;1.90;;
25199;SDS011;33094;48.782;9.162;2023-03-24T18:15:27;3.42;;;1.85;;
25199;SDS011;33094;48.782;9.162;2023-03-24T18:17:53;4.97;;;2.13;;
25199;SDS011;33094;48.782;9.162;2023-03-24T18:20:20;2.25;;;1.67;;
25199;SDS011;33094;48.782;9.162;2023-03-24T18:22:47;2.05;;;1.85;;
25199;SDS011;33094;48.782;9.162;2023-03-24T18:43:21;3.33;;;1.83;;
25199;SDS011;33094;48.782;9.162;2023-03-24T18:45:47;6.85;;;3.53;;
25199;SDS011;33094;48.782;9.162;2023-03-24T19:06:24;4.15;;;2.10;;
25199;SDS011;33094;48.782;9.162;2023-03-24T19:11:31;3.05;;;1.83;;
25199;SDS011;33094;48.782;9.162;2023-03-24T19:13:58;6.75;;;2.13;;
25199;SDS011;33094;48.782;9.162;2023-03-24T19:19:01;3.05;;;1.75;;
25199;SDS011;33094;48.782;9.162;2023-03-24T21:02:41;5.00;;;2.47;;
25199;SDS011;33094;48.782;9.162;2023-03-24T21:23:32;5.18;;;2.78;;
25199;SDS011;33094;48.782;9.162;2023-03-24T23:18:59;7.03;;;2.08;;
